createdAt,value
2022-10-18T00:02:20.190Z,9.60
2022-10-18T00:04:47.108Z,9.65
2022-10-18T00:07:13.542Z,10.30
2022-10-18T00:09:40.006Z,9.68
2022-10-18T00:12:06.439Z,11.45
2022-10-18T00:14:32.950Z,10.50
2022-10-18T00:16:59.384Z,11.13
2022-10-18T00:19:28.535Z,11.15
2022-10-18T00:21:55.847Z,10.77
2022-10-18T00:24:22.284Z,10.88
2022-10-18T00:26:48.650Z,10.80
2022-10-18T00:29:16.523Z,10.15
2022-10-18T00:31:44.000Z,11.77
2022-10-18T00:34:14.082Z,10.05
2022-10-18T00:36:41.497Z,10.43
2022-10-18T00:39:12.378Z,9.98
2022-10-18T00:41:38.873Z,10.00
2022-10-18T00:44:12.738Z,10.48
2022-10-18T00:46:41.819Z,10.15
2022-10-18T00:49:17.153Z,10.25
2022-10-18T00:52:08.202Z,10.45
2022-10-18T00:54:38.345Z,9.40
2022-10-18T00:57:06.178Z,9.98
2022-10-18T00:59:33.783Z,9.55
2022-10-18T01:02:00.863Z,9.27
2022-10-18T01:04:27.536Z,9.73
2022-10-18T01:07:12.870Z,9.25
2022-10-18T01:09:39.280Z,9.95
2022-10-18T01:12:49.192Z,11.20
2022-10-18T01:15:18.363Z,8.98
2022-10-18T01:18:09.715Z,10.82
2022-10-18T01:20:55.637Z,9.90
2022-10-18T01:23:54.462Z,9.43
2022-10-18T01:26:46.918Z,10.75
2022-10-18T01:32:04.895Z,11.57
2022-10-18T01:34:35.070Z,11.77
2022-10-18T01:37:05.033Z,11.45
2022-10-18T01:39:34.856Z,10.60
2022-10-18T01:42:05.195Z,12.60
2022-10-18T01:44:33.357Z,9.50
2022-10-18T01:47:00.416Z,11.05
2022-10-18T01:49:27.352Z,10.55
2022-10-18T01:51:53.936Z,11.30
2022-10-18T01:54:30.945Z,12.80
2022-10-18T01:57:28.151Z,10.32
2022-10-18T02:00:03.839Z,9.40
2022-10-18T02:02:51.609Z,10.77
2022-10-18T02:05:32.806Z,11.07
2022-10-18T02:08:23.518Z,9.68
2022-10-18T02:10:58.866Z,10.32
2022-10-18T02:13:30.515Z,9.40
2022-10-18T02:16:03.943Z,10.02
2022-10-18T02:18:55.063Z,9.45
2022-10-18T02:21:23.137Z,10.57
2022-10-18T02:26:16.760Z,10.50
2022-10-18T02:28:43.778Z,9.32
2022-10-18T02:31:26.265Z,10.48
2022-10-18T02:34:06.457Z,9.68
2022-10-18T02:36:59.748Z,10.52
2022-10-18T02:39:38.360Z,9.32
2022-10-18T02:42:06.859Z,10.25
2022-10-18T02:44:37.900Z,9.32
2022-10-18T02:47:06.317Z,7.85
2022-10-18T02:49:32.720Z,9.00
2022-10-18T02:51:59.215Z,9.65
2022-10-18T02:54:25.665Z,9.77
2022-10-18T02:56:52.099Z,10.13
2022-10-18T02:59:18.544Z,10.43
2022-10-18T03:01:45.435Z,9.50
2022-10-18T03:04:12.097Z,9.75
2022-10-18T03:06:38.604Z,9.40
2022-10-18T03:09:06.732Z,9.68
2022-10-18T03:16:26.118Z,9.77
2022-10-18T03:18:52.575Z,9.55
2022-10-18T03:21:19.018Z,9.52
2022-10-18T03:23:45.472Z,10.43
2022-10-18T03:26:14.346Z,9.80
2022-10-18T03:28:40.821Z,9.50
2022-10-18T03:31:07.263Z,9.13
2022-10-18T03:33:33.847Z,8.32
2022-10-18T03:36:00.454Z,7.93
2022-10-18T03:38:27.111Z,9.07
2022-10-18T03:40:53.504Z,10.60
2022-10-18T03:43:20.008Z,8.73
2022-10-18T03:45:46.486Z,9.35
2022-10-18T03:48:13.107Z,9.90
2022-10-18T03:50:39.543Z,10.25
2022-10-18T03:53:06.060Z,10.80
2022-10-18T03:55:32.488Z,12.00
2022-10-18T03:57:58.907Z,10.75
2022-10-18T04:00:25.358Z,12.65
2022-10-18T04:02:54.934Z,11.30
2022-10-18T04:05:24.147Z,11.15
2022-10-18T04:10:18.613Z,10.18
2022-10-18T04:12:45.088Z,9.77
2022-10-18T04:15:11.874Z,13.60
2022-10-18T04:17:38.331Z,11.07
2022-10-18T04:20:05.360Z,10.73
2022-10-18T04:22:31.779Z,10.63
2022-10-18T04:24:58.348Z,10.02
2022-10-18T04:27:24.984Z,10.93
2022-10-18T04:29:51.418Z,9.88
2022-10-18T04:32:17.863Z,10.02
2022-10-18T04:34:44.261Z,9.05
2022-10-18T04:37:10.854Z,9.27
2022-10-18T04:39:37.257Z,7.68
2022-10-18T04:42:03.629Z,7.80
2022-10-18T04:44:30.119Z,7.28
2022-10-18T04:46:56.550Z,7.65
2022-10-18T04:49:22.984Z,7.28
2022-10-18T04:51:49.387Z,7.95
2022-10-18T04:54:16.134Z,6.78
2022-10-18T04:56:42.558Z,6.65
2022-10-18T04:59:08.991Z,6.30
2022-10-18T05:01:35.444Z,5.82
2022-10-18T05:04:01.939Z,5.93
2022-10-18T05:06:28.394Z,6.20
2022-10-18T05:08:54.832Z,6.13
2022-10-18T05:11:21.231Z,5.70
2022-10-18T05:13:50.110Z,5.50
2022-10-18T05:16:17.790Z,5.35
2022-10-18T05:18:44.240Z,5.45
2022-10-18T05:21:12.413Z,5.85
2022-10-18T05:23:39.196Z,5.70
2022-10-18T05:26:06.868Z,5.72
2022-10-18T05:28:39.225Z,6.18
2022-10-18T05:31:07.991Z,6.00
2022-10-18T05:33:35.981Z,6.32
2022-10-18T05:36:02.417Z,5.20
2022-10-18T05:38:31.025Z,6.28
2022-10-18T05:40:58.591Z,6.07
2022-10-18T05:43:28.859Z,4.72
2022-10-18T05:45:55.315Z,5.63
2022-10-18T05:48:21.765Z,5.05
2022-10-18T05:50:48.157Z,5.60
2022-10-18T05:53:35.250Z,5.25
2022-10-18T05:56:02.592Z,5.63
2022-10-18T05:58:29.114Z,5.40
2022-10-18T06:00:59.023Z,5.03
2022-10-18T06:03:27.501Z,5.10
2022-10-18T06:06:02.351Z,4.47
2022-10-18T06:08:29.068Z,4.97
2022-10-18T06:10:55.839Z,4.50
2022-10-18T06:13:22.504Z,4.38
2022-10-18T06:15:49.161Z,4.20
2022-10-18T06:18:16.031Z,3.95
2022-10-18T06:20:42.463Z,4.15
2022-10-18T06:23:08.878Z,3.92
2022-10-18T06:25:35.353Z,4.55
2022-10-18T06:28:06.004Z,4.05
2022-10-18T06:30:34.872Z,4.18
2022-10-18T06:33:01.448Z,4.25
2022-10-18T06:35:28.192Z,3.83
2022-10-18T06:37:54.672Z,4.60
2022-10-18T06:40:21.273Z,3.67
2022-10-18T06:42:59.906Z,3.85
2022-10-18T06:45:33.341Z,4.10
2022-10-18T06:48:00.063Z,3.67
2022-10-18T06:50:26.544Z,3.97
2022-10-18T06:52:52.986Z,3.80
2022-10-18T06:55:19.572Z,3.58
2022-10-18T06:57:46.188Z,4.18
2022-10-18T07:00:13.295Z,3.55
2022-10-18T07:02:41.253Z,4.20
2022-10-18T07:05:08.991Z,4.25
2022-10-18T07:07:35.663Z,4.18
2022-10-18T07:10:02.357Z,4.75
2022-10-18T07:12:28.843Z,4.78
2022-10-18T07:14:55.272Z,4.70
2022-10-18T07:17:21.730Z,7.22
2022-10-18T07:19:48.201Z,6.55
2022-10-18T07:22:14.799Z,6.10
2022-10-18T07:24:41.256Z,6.30
2022-10-18T07:27:07.789Z,7.00
2022-10-18T07:29:34.642Z,5.28
2022-10-18T07:32:01.041Z,6.10
2022-10-18T07:34:28.904Z,6.28
2022-10-18T07:36:55.294Z,6.30
2022-10-18T07:39:22.233Z,7.13
2022-10-18T07:41:48.747Z,7.57
2022-10-18T07:44:15.209Z,9.82
2022-10-18T07:46:41.646Z,8.10
2022-10-18T07:49:08.101Z,8.38
2022-10-18T07:51:36.022Z,10.05
2022-10-18T07:54:02.915Z,9.18
2022-10-18T07:56:29.395Z,9.38
2022-10-18T07:58:56.223Z,8.95
2022-10-18T08:01:24.530Z,10.45
2022-10-18T08:03:52.599Z,10.57
2022-10-18T08:06:20.685Z,11.55
2022-10-18T08:08:47.416Z,13.27
2022-10-18T08:11:19.861Z,12.68
2022-10-18T08:13:46.956Z,12.63
2022-10-18T08:16:16.218Z,10.55
2022-10-18T08:18:42.690Z,11.48
2022-10-18T08:21:11.704Z,11.02
2022-10-18T08:23:38.568Z,10.63
2022-10-18T08:26:16.550Z,9.70
2022-10-18T08:28:53.478Z,9.63
2022-10-18T08:31:25.529Z,9.48
2022-10-18T08:33:51.967Z,10.45
2022-10-18T08:36:19.310Z,10.07
2022-10-18T08:38:45.718Z,10.82
2022-10-18T08:41:15.123Z,8.27
2022-10-18T08:44:06.378Z,6.35
2022-10-18T08:46:36.852Z,4.50
2022-10-18T08:49:04.210Z,4.53
2022-10-18T08:51:45.227Z,4.60
2022-10-18T08:54:31.518Z,4.40
2022-10-18T08:57:04.470Z,4.38
2022-10-18T08:59:39.007Z,4.85
2022-10-18T09:02:28.941Z,2.58
2022-10-18T09:05:19.198Z,4.10
2022-10-18T09:08:00.824Z,4.22
2022-10-18T09:10:35.759Z,2.75
2022-10-18T09:13:36.157Z,2.25
2022-10-18T09:16:17.574Z,1.50
2022-10-18T09:19:02.585Z,1.05
2022-10-18T09:21:51.119Z,1.35
2022-10-18T09:24:39.230Z,1.50
2022-10-18T09:27:17.819Z,2.08
2022-10-18T09:30:10.193Z,2.42
2022-10-18T09:32:51.623Z,1.40
2022-10-18T09:35:22.624Z,3.20
2022-10-18T09:37:53.185Z,2.28
2022-10-18T09:40:25.193Z,1.23
2022-10-18T09:42:54.862Z,1.30
2022-10-18T09:45:41.466Z,1.63
2022-10-18T09:48:17.147Z,2.53
2022-10-18T09:50:47.915Z,3.05
2022-10-18T09:53:25.875Z,2.58
2022-10-18T09:55:57.315Z,2.72
2022-10-18T09:58:26.776Z,2.42
2022-10-18T10:00:53.422Z,2.30
2022-10-18T10:03:19.919Z,1.95
2022-10-18T10:05:46.740Z,2.50
2022-10-18T10:08:13.172Z,3.00
2022-10-18T10:10:45.434Z,3.00
2022-10-18T10:13:23.042Z,2.53
2022-10-18T10:16:03.345Z,3.97
2022-10-18T10:18:33.334Z,4.43
2022-10-18T10:21:05.630Z,3.05
2022-10-18T10:23:45.429Z,2.97
2022-10-18T10:26:33.376Z,2.67
2022-10-18T10:29:00.051Z,2.97
2022-10-18T10:31:36.759Z,2.90
2022-10-18T10:34:05.981Z,2.97
2022-10-18T10:36:34.080Z,2.78
2022-10-18T10:39:16.161Z,3.85
2022-10-18T10:41:42.610Z,2.75
2022-10-18T10:44:21.099Z,3.55
2022-10-18T10:46:50.202Z,3.28
2022-10-18T10:52:26.900Z,2.58
2022-10-18T10:55:05.712Z,2.53
2022-10-18T10:57:38.628Z,2.03
2022-10-18T11:00:05.523Z,2.00
2022-10-18T11:02:34.913Z,2.85
2022-10-18T11:05:24.584Z,2.42
2022-10-18T11:07:53.353Z,2.95
2022-10-18T11:10:24.385Z,2.00
2022-10-18T11:13:23.642Z,2.58
2022-10-18T11:16:00.313Z,2.05
2022-10-18T11:18:34.969Z,2.10
2022-10-18T11:21:07.886Z,2.25
2022-10-18T11:23:37.154Z,2.60
2022-10-18T11:26:11.310Z,2.05
2022-10-18T11:28:49.914Z,2.17
2022-10-18T11:31:29.967Z,2.45
2022-10-18T11:34:09.295Z,1.75
2022-10-18T11:36:54.766Z,2.20
2022-10-18T11:39:55.602Z,2.33
2022-10-18T11:42:46.725Z,1.52
2022-10-18T11:45:39.544Z,1.33
2022-10-18T11:48:30.279Z,2.95
2022-10-18T11:51:08.789Z,1.33
2022-10-18T11:53:48.385Z,1.10
2022-10-18T11:57:03.241Z,0.98
2022-10-18T11:59:50.904Z,1.27
2022-10-18T12:02:38.871Z,0.82
2022-10-18T12:05:24.033Z,1.42
2022-10-18T12:07:58.612Z,0.98
2022-10-18T12:10:44.102Z,1.00
2022-10-18T12:13:34.412Z,1.35
2022-10-18T12:16:04.020Z,0.70
2022-10-18T12:18:31.754Z,0.98
2022-10-18T12:20:59.733Z,1.00
2022-10-18T12:23:38.030Z,1.30
2022-10-18T12:26:07.800Z,0.90
2022-10-18T12:28:51.434Z,1.02
2022-10-18T12:31:39.518Z,0.85
2022-10-18T12:34:28.149Z,1.75
2022-10-18T12:37:26.074Z,0.88
2022-10-18T12:40:09.869Z,0.95
2022-10-18T12:42:44.571Z,0.73
2022-10-18T12:45:13.736Z,1.73
2022-10-18T12:47:40.618Z,0.93
2022-10-18T12:50:26.872Z,0.70
2022-10-18T12:55:38.746Z,0.82
2022-10-18T12:58:22.736Z,0.70
2022-10-18T13:00:49.146Z,2.72
2022-10-18T13:03:18.475Z,0.60
2022-10-18T13:05:53.561Z,1.10
2022-10-18T13:08:27.095Z,1.17
2022-10-18T13:11:11.853Z,0.68
2022-10-18T13:14:08.134Z,0.75
2022-10-18T13:16:58.539Z,1.05
2022-10-18T13:19:32.929Z,0.80
2022-10-18T13:22:37.247Z,0.60
2022-10-18T13:25:24.763Z,1.17
2022-10-18T13:28:00.254Z,1.55
2022-10-18T13:30:39.659Z,0.70
2022-10-18T13:33:17.961Z,0.63
2022-10-18T13:35:55.748Z,0.95
2022-10-18T13:38:42.184Z,0.70
2022-10-18T13:41:10.888Z,1.40
2022-10-18T13:43:52.971Z,1.55
2022-10-18T13:46:20.278Z,0.70
2022-10-18T13:48:53.086Z,0.85
2022-10-18T13:51:40.570Z,0.88
2022-10-18T13:54:18.404Z,0.80
2022-10-18T13:57:17.433Z,0.85
2022-10-18T13:59:59.028Z,0.80
2022-10-18T14:02:56.896Z,0.50
2022-10-18T14:06:06.734Z,0.70
2022-10-18T14:11:38.308Z,1.00
2022-10-18T14:14:34.857Z,0.88
2022-10-18T14:17:25.416Z,1.00
2022-10-18T14:19:58.358Z,0.77
2022-10-18T14:22:31.625Z,1.00
2022-10-18T14:24:59.269Z,0.93
2022-10-18T14:27:27.006Z,0.85
2022-10-18T14:30:08.934Z,0.82
2022-10-18T14:32:36.108Z,0.95
2022-10-18T14:35:32.876Z,0.90
2022-10-18T14:37:52.396Z,0.80
2022-10-18T14:40:27.953Z,0.73
2022-10-18T14:42:54.387Z,0.98
2022-10-18T14:45:21.975Z,1.10
2022-10-18T14:47:48.832Z,0.70
2022-10-18T14:50:25.442Z,1.73
2022-10-18T14:52:53.884Z,1.52
2022-10-18T14:55:24.819Z,1.17
2022-10-18T14:57:51.466Z,1.17
2022-10-18T15:00:25.897Z,1.27
2022-10-18T15:02:52.875Z,1.30
2022-10-18T15:05:22.882Z,0.70
2022-10-18T15:07:51.615Z,1.20
2022-10-18T15:10:23.808Z,0.85
2022-10-18T15:13:08.631Z,0.90
2022-10-18T15:15:36.467Z,1.10
2022-10-18T15:18:05.254Z,1.02
2022-10-18T15:20:35.178Z,1.27
2022-10-18T15:23:25.849Z,1.17
2022-10-18T15:26:04.596Z,1.33
2022-10-18T15:28:36.060Z,0.95
2022-10-18T15:31:02.956Z,0.77
2022-10-18T15:33:34.484Z,1.40
2022-10-18T15:36:12.379Z,1.42
2022-10-18T15:38:38.985Z,0.98
2022-10-18T15:41:41.187Z,1.50
2022-10-18T15:44:31.648Z,1.25
2022-10-18T15:47:13.253Z,1.13
2022-10-18T15:49:46.154Z,1.23
2022-10-18T15:52:35.230Z,1.38
2022-10-18T15:55:22.963Z,1.23
2022-10-18T15:57:49.566Z,1.38
2022-10-18T16:00:20.029Z,1.80
2022-10-18T16:02:46.558Z,1.13
2022-10-18T16:05:20.668Z,1.75
2022-10-18T16:10:18.313Z,1.27
2022-10-18T16:12:44.736Z,0.98
2022-10-18T16:15:11.207Z,1.92
2022-10-18T16:17:38.264Z,1.27
2022-10-18T16:20:05.220Z,1.13
2022-10-18T16:22:34.751Z,0.85
2022-10-18T16:25:03.594Z,1.30
2022-10-18T16:27:30.153Z,1.25
2022-10-18T16:29:56.648Z,2.33
2022-10-18T16:32:23.021Z,0.82
2022-10-18T16:34:49.476Z,1.33
2022-10-18T16:37:15.930Z,1.42
2022-10-18T16:39:42.372Z,1.10
2022-10-18T16:42:08.761Z,1.02
2022-10-18T16:44:35.240Z,1.08
2022-10-18T16:47:01.792Z,1.17
2022-10-18T16:49:28.434Z,1.40
2022-10-18T16:51:55.063Z,1.45
2022-10-18T16:54:21.616Z,0.68
2022-10-18T16:56:49.930Z,1.70
2022-10-18T16:59:24.075Z,1.23
2022-10-18T17:01:50.553Z,1.45
2022-10-18T17:04:16.985Z,0.93
2022-10-18T17:06:43.615Z,0.90
2022-10-18T17:09:13.599Z,0.90
2022-10-18T17:11:40.021Z,1.30
2022-10-18T17:14:06.454Z,1.20
2022-10-18T17:16:34.946Z,1.23
2022-10-18T17:19:04.245Z,1.60
2022-10-18T17:21:33.338Z,1.30
2022-10-18T17:24:02.950Z,1.48
2022-10-18T17:26:30.429Z,0.90
2022-10-18T17:29:02.822Z,1.30
2022-10-18T17:31:30.556Z,2.55
2022-10-18T17:33:58.568Z,0.93
2022-10-18T17:38:53.047Z,2.55
2022-10-18T17:41:19.556Z,1.00
2022-10-18T17:43:47.821Z,1.85
2022-10-18T17:46:14.574Z,1.50
2022-10-18T17:48:41.840Z,1.27
2022-10-18T17:51:10.216Z,1.58
2022-10-18T17:53:36.947Z,1.45
2022-10-18T17:56:05.022Z,1.92
2022-10-18T18:01:07.484Z,1.13
2022-10-18T18:03:34.083Z,1.20
2022-10-18T18:06:00.593Z,1.77
2022-10-18T18:08:27.064Z,1.48
2022-10-18T18:10:56.574Z,1.90
2022-10-18T18:13:23.020Z,2.13
2022-10-18T18:15:49.575Z,1.58
2022-10-18T18:18:16.044Z,2.00
2022-10-18T18:20:51.372Z,2.10
2022-10-18T18:23:19.779Z,2.08
2022-10-18T18:25:55.994Z,2.00
2022-10-18T18:28:22.485Z,1.63
2022-10-18T18:30:48.967Z,1.58
2022-10-18T18:33:15.364Z,2.08
2022-10-18T18:35:41.762Z,1.58
2022-10-18T18:38:09.085Z,1.35
2022-10-18T18:40:35.601Z,1.88
2022-10-18T18:43:12.332Z,1.95
2022-10-18T18:45:50.944Z,2.03
2022-10-18T18:48:19.746Z,1.25
2022-10-18T18:50:51.168Z,1.70
2022-10-18T18:53:18.335Z,1.58
2022-10-18T18:55:45.151Z,2.08
2022-10-18T18:58:12.164Z,3.60
2022-10-18T19:00:43.417Z,1.60
2022-10-18T19:03:11.993Z,2.38
2022-10-18T19:05:38.490Z,3.30
2022-10-18T19:08:05.388Z,2.25
2022-10-18T19:10:31.856Z,2.13
2022-10-18T19:12:58.467Z,2.40
2022-10-18T19:15:24.983Z,1.98
2022-10-18T19:17:51.453Z,1.98
2022-10-18T19:20:18.141Z,2.15
2022-10-18T19:22:45.577Z,2.10
2022-10-18T19:25:12.282Z,2.53
2022-10-18T19:27:38.868Z,2.80
2022-10-18T19:30:09.016Z,2.53
2022-10-18T19:32:35.406Z,2.55
2022-10-18T19:35:01.893Z,2.20
2022-10-18T19:37:28.362Z,2.70
2022-10-18T19:39:54.858Z,2.28
2022-10-18T19:42:24.202Z,2.38
2022-10-18T19:44:52.739Z,2.55
2022-10-18T19:47:20.450Z,2.50
2022-10-18T19:49:47.965Z,2.33
2022-10-18T19:52:14.581Z,2.80
2022-10-18T19:54:41.406Z,1.58
2022-10-18T19:57:08.641Z,1.60
2022-10-18T19:59:36.035Z,1.85
2022-10-18T20:02:04.684Z,2.22
2022-10-18T20:04:34.528Z,1.58
2022-10-18T20:07:02.673Z,1.65
2022-10-18T20:11:55.747Z,1.42
2022-10-18T20:14:22.242Z,1.75
2022-10-18T20:16:48.676Z,2.00
2022-10-18T20:19:15.148Z,1.45
2022-10-18T20:21:41.638Z,2.58
2022-10-18T20:24:09.409Z,1.83
2022-10-18T20:26:36.456Z,2.00
2022-10-18T20:29:04.284Z,1.80
2022-10-18T20:31:35.490Z,1.30
2022-10-18T20:34:03.643Z,1.60
2022-10-18T20:36:32.320Z,3.63
2022-10-18T20:38:59.261Z,1.85
2022-10-18T20:41:27.126Z,2.20
2022-10-18T20:43:55.337Z,1.08
2022-10-18T20:46:22.556Z,2.22
2022-10-18T20:48:50.631Z,1.90
2022-10-18T20:51:17.827Z,1.80
2022-10-18T20:53:45.524Z,1.48
2022-10-18T20:56:14.563Z,1.27
2022-10-18T20:58:42.809Z,2.00
2022-10-18T21:01:12.226Z,1.67
2022-10-18T21:03:46.037Z,2.08
2022-10-18T21:06:17.671Z,1.70
2022-10-18T21:08:44.914Z,1.70
2022-10-18T21:11:12.305Z,1.60
2022-10-18T21:13:40.838Z,1.67
2022-10-18T21:16:07.688Z,1.92
2022-10-18T21:18:36.424Z,1.20
2022-10-18T21:23:45.224Z,1.70
2022-10-18T21:26:23.069Z,1.75
2022-10-18T21:28:58.556Z,1.55
2022-10-18T21:31:27.098Z,1.50
2022-10-18T21:33:56.629Z,1.42
2022-10-18T21:36:23.646Z,1.75
2022-10-18T21:38:50.725Z,1.48
2022-10-18T21:41:19.280Z,1.15
2022-10-18T21:43:47.970Z,1.02
2022-10-18T21:46:15.930Z,1.00
2022-10-18T21:48:50.617Z,1.42
2022-10-18T21:51:19.665Z,1.55
2022-10-18T21:53:48.439Z,1.50
2022-10-18T21:56:18.431Z,1.30
2022-10-18T21:58:45.877Z,1.33
2022-10-18T22:01:14.608Z,1.50
2022-10-18T22:03:41.636Z,1.42
2022-10-18T22:06:13.757Z,1.63
2022-10-18T22:08:45.631Z,1.30
2022-10-18T22:11:13.500Z,1.50
2022-10-18T22:13:40.899Z,1.08
2022-10-18T22:16:08.113Z,1.13
2022-10-18T22:18:35.302Z,1.48
2022-10-18T22:21:05.167Z,1.70
2022-10-18T22:23:36.925Z,1.70
2022-10-18T22:26:11.242Z,1.30
2022-10-18T22:28:39.034Z,2.30
2022-10-18T22:31:06.338Z,1.40
2022-10-18T22:33:32.809Z,1.50
2022-10-18T22:35:59.265Z,1.15
2022-10-18T22:38:25.766Z,1.30
2022-10-18T22:40:52.230Z,1.40
2022-10-18T22:43:18.754Z,1.25
2022-10-18T22:45:45.156Z,1.50
2022-10-18T22:48:11.607Z,1.30
2022-10-18T22:50:38.007Z,1.25
2022-10-18T22:53:04.403Z,1.48
2022-10-18T22:55:30.832Z,1.88
2022-10-18T22:57:57.230Z,1.20
2022-10-18T23:00:23.823Z,1.10
2022-10-18T23:02:50.323Z,1.45
2022-10-18T23:05:16.856Z,1.48
2022-10-18T23:07:49.100Z,1.63
2022-10-18T23:10:15.685Z,1.30
2022-10-18T23:12:42.390Z,1.42
2022-10-18T23:15:09.332Z,1.55
2022-10-18T23:17:36.156Z,1.67
2022-10-18T23:20:03.352Z,1.73
2022-10-18T23:22:29.856Z,1.30
2022-10-18T23:24:56.324Z,1.55
2022-10-18T23:27:22.952Z,1.10
2022-10-18T23:29:49.366Z,0.88
2022-10-18T23:32:16.225Z,1.85
2022-10-18T23:34:42.666Z,1.52
2022-10-18T23:37:09.068Z,1.02
2022-10-18T23:39:35.480Z,1.10
2022-10-18T23:42:01.868Z,0.95
2022-10-18T23:44:28.288Z,1.25
2022-10-18T23:46:54.812Z,1.17
2022-10-18T23:49:21.199Z,0.85
2022-10-18T23:51:47.591Z,1.25
2022-10-18T23:54:14.072Z,1.38
2022-10-18T23:56:40.487Z,1.05
2022-10-18T23:59:06.906Z,1.13
